sensor_id;sensor_type;location;lat;lon;timestamp;pressure;altitude;pressure_sealevel;temperature;humidity
34237;BME280;20501;45.956;13.632;2023-03-03T00:01:07;100650.97;;;10.95;51.78
34237;BME280;20501;45.956;13.632;2023-03-03T00:03:32;100654.81;;;11.22;50.95
34237;BME280;20501;45.956;13.632;2023-03-03T00:05:58;100648.13;;;11.26;51.25
34237;BME280;20501;45.956;13.632;2023-03-03T00:08:24;100645.13;;;11.39;50.70
34237;BME280;20501;45.956;13.632;2023-03-03T00:10:50;100648.41;;;11.42;50.63
34237;BME280;20501;45.956;13.632;2023-03-03T00:13:22;100648.13;;;11.26;50.88
34237;BME280;20501;45.956;13.632;2023-03-03T00:15:48;100643.84;;;11.23;50.23
34237;BME280;20501;45.956;13.632;2023-03-03T00:18:21;100635.44;;;10.97;49.56
34237;BME280;20501;45.956;13.632;2023-03-03T00:20:54;100639.75;;;11.19;51.15
34237;BME280;20501;45.956;13.632;2023-03-03T00:23:26;100643.00;;;11.33;50.97
34237;BME280;20501;45.956;13.632;2023-03-03T00:25:54;100636.88;;;11.01;51.81
34237;BME280;20501;45.956;13.632;2023-03-03T00:28:44;100639.81;;;8.35;57.84
34237;BME280;20501;45.956;13.632;2023-03-03T00:31:32;100638.97;;;10.68;53.04
34237;BME280;20501;45.956;13.632;2023-03-03T00:34:22;100647.63;;;9.05;57.14
34237;BME280;20501;45.956;13.632;2023-03-03T00:36:52;100633.38;;;10.09;54.79
34237;BME280;20501;45.956;13.632;2023-03-03T00:41:59;100625.22;;;11.01;51.83
34237;BME280;20501;45.956;13.632;2023-03-03T00:44:43;100629.34;;;10.34;53.29
34237;BME280;20501;45.956;13.632;2023-03-03T00:49:43;100622.09;;;11.15;51.43
34237;BME280;20501;45.956;13.632;2023-03-03T00:52:15;100621.97;;;11.17;51.39
34237;BME280;20501;45.956;13.632;2023-03-03T00:54:41;100622.22;;;10.84;51.97
34237;BME280;20501;45.956;13.632;2023-03-03T00:57:07;100619.25;;;11.07;50.01
34237;BME280;20501;45.956;13.632;2023-03-03T00:59:32;100623.78;;;9.22;53.29
34237;BME280;20501;45.956;13.632;2023-03-03T01:01:57;100618.94;;;10.80;52.40
34237;BME280;20501;45.956;13.632;2023-03-03T01:04:23;100622.09;;;11.15;51.23
34237;BME280;20501;45.956;13.632;2023-03-03T01:06:48;100613.81;;;10.97;51.12
34237;BME280;20501;45.956;13.632;2023-03-03T01:09:14;100607.72;;;10.85;52.01
34237;BME280;20501;45.956;13.632;2023-03-03T01:11:39;100603.47;;;9.91;54.14
34237;BME280;20501;45.956;13.632;2023-03-03T01:14:05;100596.34;;;11.01;51.59
34237;BME280;20501;45.956;13.632;2023-03-03T01:16:30;100593.34;;;10.75;52.39
34237;BME280;20501;45.956;13.632;2023-03-03T01:18:57;100590.94;;;11.11;51.41
34237;BME280;20501;45.956;13.632;2023-03-03T01:21:22;100591.13;;;8.82;56.74
34237;BME280;20501;45.956;13.632;2023-03-03T01:23:48;100587.91;;;10.55;52.80
34237;BME280;20501;45.956;13.632;2023-03-03T01:26:13;100581.16;;;8.94;52.86
34237;BME280;20501;45.956;13.632;2023-03-03T01:28:39;100586.00;;;9.64;55.89
34237;BME280;20501;45.956;13.632;2023-03-03T01:31:04;100577.38;;;9.39;54.47
34237;BME280;20501;45.956;13.632;2023-03-03T01:33:32;100574.00;;;10.79;52.34
34237;BME280;20501;45.956;13.632;2023-03-03T01:35:57;100571.44;;;11.17;51.17
34237;BME280;20501;45.956;13.632;2023-03-03T01:38:23;100576.28;;;10.94;49.66
34237;BME280;20501;45.956;13.632;2023-03-03T01:40:56;100560.97;;;10.34;52.63
34237;BME280;20501;45.956;13.632;2023-03-03T01:43:25;100566.31;;;10.94;51.72
34237;BME280;20501;45.956;13.632;2023-03-03T01:48:25;100558.47;;;10.52;52.84
34237;BME280;20501;45.956;13.632;2023-03-03T01:51:18;100555.78;;;11.11;51.34
34237;BME280;20501;45.956;13.632;2023-03-03T01:53:49;100548.03;;;9.77;51.68
34237;BME280;20501;45.956;13.632;2023-03-03T01:56:15;100554.34;;;11.07;51.34
34237;BME280;20501;45.956;13.632;2023-03-03T01:59:02;100551.34;;;11.29;50.53
34237;BME280;20501;45.956;13.632;2023-03-03T02:01:31;100555.44;;;11.43;50.26
34237;BME280;20501;45.956;13.632;2023-03-03T02:03:58;100549.69;;;10.60;52.17
34237;BME280;20501;45.956;13.632;2023-03-03T02:06:28;100548.53;;;11.11;51.13
34237;BME280;20501;45.956;13.632;2023-03-03T02:09:05;100541.00;;;9.34;52.42
34237;BME280;20501;45.956;13.632;2023-03-03T02:11:35;100542.84;;;8.91;57.93
34237;BME280;20501;45.956;13.632;2023-03-03T02:14:02;100543.97;;;8.56;58.22
34237;BME280;20501;45.956;13.632;2023-03-03T02:16:27;100543.22;;;7.87;58.45
34237;BME280;20501;45.956;13.632;2023-03-03T02:18:53;100539.75;;;10.10;54.47
34237;BME280;20501;45.956;13.632;2023-03-03T02:21:20;100532.31;;;10.92;51.91
34237;BME280;20501;45.956;13.632;2023-03-03T02:24:11;100536.16;;;10.50;52.42
34237;BME280;20501;45.956;13.632;2023-03-03T02:26:41;100535.00;;;11.11;51.32
34237;BME280;20501;45.956;13.632;2023-03-03T02:29:08;100526.00;;;11.21;51.03
34237;BME280;20501;45.956;13.632;2023-03-03T02:31:34;100528.16;;;11.07;51.34
34237;BME280;20501;45.956;13.632;2023-03-03T02:34:00;100525.28;;;9.70;53.91
34237;BME280;20501;45.956;13.632;2023-03-03T02:36:31;100523.06;;;9.85;53.34
34237;BME280;20501;45.956;13.632;2023-03-03T02:39:09;100519.69;;;10.63;52.78
34237;BME280;20501;45.956;13.632;2023-03-03T02:41:43;100521.22;;;11.05;51.52
34237;BME280;20501;45.956;13.632;2023-03-03T02:44:22;100523.31;;;11.30;50.67
34237;BME280;20501;45.956;13.632;2023-03-03T02:46:49;100521.75;;;11.28;50.80
34237;BME280;20501;45.956;13.632;2023-03-03T02:49:19;100516.41;;;10.69;51.38
34237;BME280;20501;45.956;13.632;2023-03-03T02:51:45;100528.03;;;11.09;51.56
34237;BME280;20501;45.956;13.632;2023-03-03T02:54:12;100522.75;;;10.29;51.36
34237;BME280;20501;45.956;13.632;2023-03-03T02:56:38;100519.84;;;9.08;57.35
34237;BME280;20501;45.956;13.632;2023-03-03T02:59:04;100520.50;;;10.53;53.18
34237;BME280;20501;45.956;13.632;2023-03-03T03:01:29;100516.41;;;10.59;52.59
34237;BME280;20501;45.956;13.632;2023-03-03T03:03:57;100525.72;;;11.24;51.28
34237;BME280;20501;45.956;13.632;2023-03-03T03:06:23;100520.56;;;11.40;50.83
34237;BME280;20501;45.956;13.632;2023-03-03T03:08:48;100519.41;;;7.48;59.65
34237;BME280;20501;45.956;13.632;2023-03-03T03:11:14;100524.78;;;7.59;59.59
34237;BME280;20501;45.956;13.632;2023-03-03T03:13:40;100519.03;;;9.69;56.38
34237;BME280;20501;45.956;13.632;2023-03-03T03:16:05;100522.75;;;9.78;55.41
34237;BME280;20501;45.956;13.632;2023-03-03T03:18:31;100518.38;;;10.37;52.50
34237;BME280;20501;45.956;13.632;2023-03-03T03:20:56;100514.13;;;9.84;55.77
34237;BME280;20501;45.956;13.632;2023-03-03T03:23:22;100514.72;;;10.58;53.44
34237;BME280;20501;45.956;13.632;2023-03-03T03:25:47;100526.59;;;8.60;56.18
34237;BME280;20501;45.956;13.632;2023-03-03T03:28:15;100518.84;;;9.92;55.50
34237;BME280;20501;45.956;13.632;2023-03-03T03:30:42;100519.38;;;10.66;53.10
34237;BME280;20501;45.956;13.632;2023-03-03T03:33:08;100515.84;;;10.65;52.80
34237;BME280;20501;45.956;13.632;2023-03-03T03:35:35;100523.47;;;11.09;52.12
34237;BME280;20501;45.956;13.632;2023-03-03T03:38:01;100512.97;;;10.96;52.00
34237;BME280;20501;45.956;13.632;2023-03-03T03:40:26;100516.22;;;11.10;51.78
34237;BME280;20501;45.956;13.632;2023-03-03T03:42:53;100514.75;;;11.25;51.52
34237;BME280;20501;45.956;13.632;2023-03-03T03:45:18;100520.44;;;11.32;51.16
34237;BME280;20501;45.956;13.632;2023-03-03T03:47:44;100519.22;;;10.97;52.51
34237;BME280;20501;45.956;13.632;2023-03-03T03:50:10;100515.47;;;11.27;51.48
34237;BME280;20501;45.956;13.632;2023-03-03T03:52:35;100515.13;;;11.40;51.19
34237;BME280;20501;45.956;13.632;2023-03-03T03:55:01;100506.59;;;11.45;50.95
34237;BME280;20501;45.956;13.632;2023-03-03T03:57:27;100503.94;;;9.26;56.13
34237;BME280;20501;45.956;13.632;2023-03-03T03:59:52;100501.19;;;10.48;54.05
34237;BME280;20501;45.956;13.632;2023-03-03T04:02:18;100503.44;;;11.02;52.33
34237;BME280;20501;45.956;13.632;2023-03-03T04:04:44;100505.09;;;11.33;51.59
34237;BME280;20501;45.956;13.632;2023-03-03T04:07:09;100506.38;;;11.28;51.50
34237;BME280;20501;45.956;13.632;2023-03-03T04:09:34;100498.47;;;11.45;51.13
34237;BME280;20501;45.956;13.632;2023-03-03T04:12:00;100501.34;;;11.43;51.23
34237;BME280;20501;45.956;13.632;2023-03-03T04:14:25;100500.03;;;11.48;51.21
34237;BME280;20501;45.956;13.632;2023-03-03T04:16:51;100500.47;;;10.95;52.36
34237;BME280;20501;45.956;13.632;2023-03-03T04:19:16;100497.66;;;11.35;51.72
34237;BME280;20501;45.956;13.632;2023-03-03T04:21:42;100496.63;;;11.45;51.14
34237;BME280;20501;45.956;13.632;2023-03-03T04:24:07;100492.06;;;11.46;51.50
34237;BME280;20501;45.956;13.632;2023-03-03T04:26:33;100494.47;;;11.02;52.40
34237;BME280;20501;45.956;13.632;2023-03-03T04:28:58;100491.66;;;11.41;51.56
34237;BME280;20501;45.956;13.632;2023-03-03T04:31:24;100490.47;;;11.06;51.53
34237;BME280;20501;45.956;13.632;2023-03-03T04:33:51;100496.91;;;10.95;52.77
34237;BME280;20501;45.956;13.632;2023-03-03T04:36:17;100497.81;;;11.33;51.81
34237;BME280;20501;45.956;13.632;2023-03-03T04:38:42;100497.38;;;11.38;51.55
34237;BME280;20501;45.956;13.632;2023-03-03T04:41:08;100495.84;;;11.25;51.63
34237;BME280;20501;45.956;13.632;2023-03-03T04:43:33;100497.81;;;11.23;52.01
34237;BME280;20501;45.956;13.632;2023-03-03T04:45:59;100491.84;;;11.29;52.10
34237;BME280;20501;45.956;13.632;2023-03-03T04:48:24;100485.94;;;10.28;54.74
34237;BME280;20501;45.956;13.632;2023-03-03T04:50:50;100493.19;;;10.27;54.60
34237;BME280;20501;45.956;13.632;2023-03-03T04:53:15;100492.91;;;11.09;52.79
34237;BME280;20501;45.956;13.632;2023-03-03T04:55:41;100490.56;;;11.34;51.80
34237;BME280;20501;45.956;13.632;2023-03-03T04:58:06;100489.66;;;7.95;59.30
34237;BME280;20501;45.956;13.632;2023-03-03T05:00:34;100483.09;;;9.69;56.90
34237;BME280;20501;45.956;13.632;2023-03-03T05:03:00;100487.03;;;10.05;55.05
34237;BME280;20501;45.956;13.632;2023-03-03T05:05:25;100483.75;;;8.99;55.61
34237;BME280;20501;45.956;13.632;2023-03-03T05:07:51;100485.06;;;9.26;57.67
34237;BME280;20501;45.956;13.632;2023-03-03T05:10:16;100478.50;;;10.10;55.42
34237;BME280;20501;45.956;13.632;2023-03-03T05:12:42;100484.69;;;10.61;53.99
34237;BME280;20501;45.956;13.632;2023-03-03T05:15:08;100488.41;;;8.43;59.54
34237;BME280;20501;45.956;13.632;2023-03-03T05:17:34;100478.16;;;9.84;56.71
34237;BME280;20501;45.956;13.632;2023-03-03T05:19:59;100482.53;;;8.05;59.86
34237;BME280;20501;45.956;13.632;2023-03-03T05:22:25;100487.31;;;8.78;59.88
34237;BME280;20501;45.956;13.632;2023-03-03T05:24:51;100493.59;;;10.22;55.44
34237;BME280;20501;45.956;13.632;2023-03-03T05:27:18;100486.22;;;10.93;53.34
34237;BME280;20501;45.956;13.632;2023-03-03T05:29:44;100492.91;;;11.09;52.69
34237;BME280;20501;45.956;13.632;2023-03-03T05:32:09;100478.16;;;10.54;52.33
34237;BME280;20501;45.956;13.632;2023-03-03T05:34:35;100479.59;;;10.48;54.11
34237;BME280;20501;45.956;13.632;2023-03-03T05:37:00;100483.78;;;11.10;52.69
34237;BME280;20501;45.956;13.632;2023-03-03T05:39:28;100483.13;;;11.36;51.87
34237;BME280;20501;45.956;13.632;2023-03-03T05:41:53;100485.44;;;11.30;52.12
34237;BME280;20501;45.956;13.632;2023-03-03T05:44:20;100487.88;;;11.14;51.77
34237;BME280;20501;45.956;13.632;2023-03-03T05:46:45;100483.41;;;11.42;51.81
34237;BME280;20501;45.956;13.632;2023-03-03T05:49:10;100492.56;;;11.22;51.87
34237;BME280;20501;45.956;13.632;2023-03-03T05:51:36;100495.38;;;11.30;51.91
34237;BME280;20501;45.956;13.632;2023-03-03T05:54:01;100500.97;;;11.28;52.21
34237;BME280;20501;45.956;13.632;2023-03-03T05:56:27;100498.06;;;10.73;52.60
34237;BME280;20501;45.956;13.632;2023-03-03T05:58:52;100503.75;;;10.89;53.13
34237;BME280;20501;45.956;13.632;2023-03-03T06:01:18;100520.34;;;8.04;59.36
34237;BME280;20501;45.956;13.632;2023-03-03T06:03:43;100509.28;;;9.47;55.43
34237;BME280;20501;45.956;13.632;2023-03-03T06:06:08;100509.84;;;9.51;57.53
34237;BME280;20501;45.956;13.632;2023-03-03T06:08:34;100516.06;;;10.23;55.18
34237;BME280;20501;45.956;13.632;2023-03-03T06:11:00;100521.78;;;8.96;56.84
34237;BME280;20501;45.956;13.632;2023-03-03T06:13:25;100523.28;;;10.22;55.44
34237;BME280;20501;45.956;13.632;2023-03-03T06:15:51;100516.75;;;9.12;56.39
34237;BME280;20501;45.956;13.632;2023-03-03T06:18:16;100521.94;;;7.95;61.56
34237;BME280;20501;45.956;13.632;2023-03-03T06:20:42;100522.25;;;9.32;57.13
34237;BME280;20501;45.956;13.632;2023-03-03T06:23:07;100526.16;;;8.76;58.86
34237;BME280;20501;45.956;13.632;2023-03-03T06:25:33;100531.06;;;9.34;57.48
34237;BME280;20501;45.956;13.632;2023-03-03T06:28:00;100532.13;;;9.22;57.59
34237;BME280;20501;45.956;13.632;2023-03-03T06:30:25;100526.16;;;9.80;56.71
34237;BME280;20501;45.956;13.632;2023-03-03T06:32:53;100530.41;;;10.14;55.42
34237;BME280;20501;45.956;13.632;2023-03-03T06:35:18;100541.16;;;10.74;54.43
34237;BME280;20501;45.956;13.632;2023-03-03T06:37:43;100537.31;;;9.35;57.77
34237;BME280;20501;45.956;13.632;2023-03-03T06:40:09;100543.91;;;10.14;55.46
34237;BME280;20501;45.956;13.632;2023-03-03T06:42:35;100545.56;;;10.95;53.51
34237;BME280;20501;45.956;13.632;2023-03-03T06:45:00;100536.59;;;10.94;53.35
34237;BME280;20501;45.956;13.632;2023-03-03T06:47:26;100546.41;;;10.95;53.30
34237;BME280;20501;45.956;13.632;2023-03-03T06:49:51;100549.63;;;11.38;52.35
34237;BME280;20501;45.956;13.632;2023-03-03T06:52:21;100547.34;;;11.34;52.60
34237;BME280;20501;45.956;13.632;2023-03-03T06:54:46;100549.81;;;10.97;53.23
34237;BME280;20501;45.956;13.632;2023-03-03T06:57:19;100548.28;;;10.95;53.60
34237;BME280;20501;45.956;13.632;2023-03-03T06:59:51;100554.59;;;11.23;53.02
34237;BME280;20501;45.956;13.632;2023-03-03T07:02:18;100552.16;;;11.40;52.33
34237;BME280;20501;45.956;13.632;2023-03-03T07:04:44;100553.81;;;10.03;55.55
34237;BME280;20501;45.956;13.632;2023-03-03T07:09:44;100563.59;;;11.24;53.12
34237;BME280;20501;45.956;13.632;2023-03-03T07:12:12;100560.00;;;9.94;56.69
34237;BME280;20501;45.956;13.632;2023-03-03T07:14:44;100563.56;;;9.11;59.29
34237;BME280;20501;45.956;13.632;2023-03-03T07:17:16;100563.81;;;10.32;55.97
34237;BME280;20501;45.956;13.632;2023-03-03T07:19:43;100564.47;;;10.65;55.08
34237;BME280;20501;45.956;13.632;2023-03-03T07:22:24;100569.84;;;11.24;53.17
34237;BME280;20501;45.956;13.632;2023-03-03T07:24:53;100568.09;;;9.84;57.08
34237;BME280;20501;45.956;13.632;2023-03-03T07:27:25;100574.63;;;9.60;58.46
34237;BME280;20501;45.956;13.632;2023-03-03T07:29:53;100565.19;;;10.87;54.69
34237;BME280;20501;45.956;13.632;2023-03-03T07:32:42;100572.31;;;10.18;56.72
34237;BME280;20501;45.956;13.632;2023-03-03T07:38:16;100575.69;;;11.00;54.41
34237;BME280;20501;45.956;13.632;2023-03-03T07:40:47;100586.28;;;9.61;58.27
34237;BME280;20501;45.956;13.632;2023-03-03T07:46:34;100590.66;;;9.83;58.01
34237;BME280;20501;45.956;13.632;2023-03-03T07:49:12;100586.09;;;9.84;58.22
34237;BME280;20501;45.956;13.632;2023-03-03T07:51:40;100594.75;;;9.78;58.50
34237;BME280;20501;45.956;13.632;2023-03-03T07:57:13;100588.47;;;9.25;60.47
34237;BME280;20501;45.956;13.632;2023-03-03T08:02:43;100593.78;;;10.90;55.65
34237;BME280;20501;45.956;13.632;2023-03-03T08:10:55;100588.88;;;10.44;57.20
34237;BME280;20501;45.956;13.632;2023-03-03T08:13:31;100597.78;;;11.05;55.06
34237;BME280;20501;45.956;13.632;2023-03-03T08:16:20;100591.19;;;11.37;54.05
34237;BME280;20501;45.956;13.632;2023-03-03T08:18:50;100601.09;;;11.56;53.30
34237;BME280;20501;45.956;13.632;2023-03-03T08:21:18;100602.53;;;11.60;53.38
34237;BME280;20501;45.956;13.632;2023-03-03T08:23:44;100605.44;;;11.29;54.31
34237;BME280;20501;45.956;13.632;2023-03-03T08:26:09;100599.09;;;11.68;53.21
34237;BME280;20501;45.956;13.632;2023-03-03T08:28:37;100600.63;;;11.81;52.75
34237;BME280;20501;45.956;13.632;2023-03-03T08:31:03;100603.16;;;11.15;54.03
34237;BME280;20501;45.956;13.632;2023-03-03T08:33:28;100600.59;;;11.13;54.69
34237;BME280;20501;45.956;13.632;2023-03-03T08:35:54;100598.03;;;10.63;55.77
34237;BME280;20501;45.956;13.632;2023-03-03T08:38:20;100597.16;;;10.62;54.60
34237;BME280;20501;45.956;13.632;2023-03-03T08:40:47;100598.97;;;10.01;55.88
34237;BME280;20501;45.956;13.632;2023-03-03T08:43:13;100604.53;;;10.10;57.70
34237;BME280;20501;45.956;13.632;2023-03-03T08:45:43;100607.06;;;10.01;56.25
34237;BME280;20501;45.956;13.632;2023-03-03T08:48:09;100596.25;;;10.42;56.78
34237;BME280;20501;45.956;13.632;2023-03-03T08:50:34;100593.28;;;10.04;56.10
34237;BME280;20501;45.956;13.632;2023-03-03T08:53:01;100603.44;;;10.73;55.59
34237;BME280;20501;45.956;13.632;2023-03-03T08:55:27;100597.59;;;10.58;56.08
34237;BME280;20501;45.956;13.632;2023-03-03T08:57:52;100601.69;;;10.52;55.45
34237;BME280;20501;45.956;13.632;2023-03-03T09:00:19;100604.97;;;10.46;56.16
34237;BME280;20501;45.956;13.632;2023-03-03T09:02:44;100611.41;;;10.23;56.30
34237;BME280;20501;45.956;13.632;2023-03-03T09:05:11;100608.91;;;10.01;56.56
34237;BME280;20501;45.956;13.632;2023-03-03T09:07:37;100613.34;;;10.43;56.07
34237;BME280;20501;45.956;13.632;2023-03-03T09:10:04;100617.47;;;10.16;57.01
34237;BME280;20501;45.956;13.632;2023-03-03T09:12:33;100620.88;;;10.49;54.83
34237;BME280;20501;45.956;13.632;2023-03-03T09:15:12;100615.84;;;10.95;54.70
34237;BME280;20501;45.956;13.632;2023-03-03T09:17:39;100628.63;;;10.32;55.77
34237;BME280;20501;45.956;13.632;2023-03-03T09:20:29;100638.56;;;10.32;55.56
34237;BME280;20501;45.956;13.632;2023-03-03T09:22:57;100637.25;;;10.26;55.95
34237;BME280;20501;45.956;13.632;2023-03-03T09:27:52;100634.03;;;10.83;55.38
34237;BME280;20501;45.956;13.632;2023-03-03T09:32:51;100638.03;;;11.28;54.16
34237;BME280;20501;45.956;13.632;2023-03-03T09:35:37;100648.06;;;11.65;53.29
34237;BME280;20501;45.956;13.632;2023-03-03T09:38:30;100640.47;;;11.88;52.60
34237;BME280;20501;45.956;13.632;2023-03-03T09:49:35;100656.00;;;9.87;58.78
34237;BME280;20501;45.956;13.632;2023-03-03T09:55:09;100658.66;;;9.56;60.26
34237;BME280;20501;45.956;13.632;2023-03-03T10:04:00;100660.41;;;9.24;61.35
34237;BME280;20501;45.956;13.632;2023-03-03T10:06:48;100666.34;;;9.60;60.41
34237;BME280;20501;45.956;13.632;2023-03-03T10:53:58;100689.84;;;10.53;56.12
34237;BME280;20501;45.956;13.632;2023-03-03T10:59:37;100693.44;;;10.01;56.90
34237;BME280;20501;45.956;13.632;2023-03-03T11:02:26;100692.94;;;10.17;56.76
34237;BME280;20501;45.956;13.632;2023-03-03T11:07:39;100680.59;;;10.46;55.95
34237;BME280;20501;45.956;13.632;2023-03-03T11:10:29;100681.28;;;10.48;55.42
34237;BME280;20501;45.956;13.632;2023-03-03T11:13:22;100677.06;;;10.55;56.12
34237;BME280;20501;45.956;13.632;2023-03-03T11:18:48;100680.66;;;10.75;55.13
34237;BME280;20501;45.956;13.632;2023-03-03T11:21:28;100680.59;;;10.15;56.08
34237;BME280;20501;45.956;13.632;2023-03-03T11:40:25;100682.91;;;9.98;57.21
34237;BME280;20501;45.956;13.632;2023-03-03T11:45:47;100685.00;;;9.95;57.09
34237;BME280;20501;45.956;13.632;2023-03-03T11:54:26;100671.19;;;10.40;56.46
34237;BME280;20501;45.956;13.632;2023-03-03T11:57:09;100672.16;;;10.08;56.93
34237;BME280;20501;45.956;13.632;2023-03-03T11:59:46;100668.25;;;10.22;57.31
34237;BME280;20501;45.956;13.632;2023-03-03T12:04:55;100658.44;;;10.21;56.02
34237;BME280;20501;45.956;13.632;2023-03-03T12:07:30;100659.16;;;10.23;56.64
34237;BME280;20501;45.956;13.632;2023-03-03T12:13:02;100658.44;;;10.21;56.53
34237;BME280;20501;45.956;13.632;2023-03-03T12:23:50;100649.59;;;10.09;56.64
34237;BME280;20501;45.956;13.632;2023-03-03T12:26:36;100652.00;;;10.12;57.06
34237;BME280;20501;45.956;13.632;2023-03-03T12:32:14;100649.25;;;10.84;55.75
34237;BME280;20501;45.956;13.632;2023-03-03T12:37:53;100651.06;;;10.33;55.85
34237;BME280;20501;45.956;13.632;2023-03-03T12:40:25;100647.00;;;10.38;55.96
34237;BME280;20501;45.956;13.632;2023-03-03T12:48:40;100639.47;;;10.11;56.17
34237;BME280;20501;45.956;13.632;2023-03-03T12:51:18;100631.56;;;9.88;56.81
34237;BME280;20501;45.956;13.632;2023-03-03T12:56:33;100632.88;;;10.25;56.06
34237;BME280;20501;45.956;13.632;2023-03-03T13:05:09;100634.72;;;10.75;56.38
34237;BME280;20501;45.956;13.632;2023-03-03T13:10:23;100632.06;;;10.34;55.67
34237;BME280;20501;45.956;13.632;2023-03-03T13:13:00;100630.19;;;10.35;56.03
34237;BME280;20501;45.956;13.632;2023-03-03T13:15:29;100630.28;;;10.55;56.01
34237;BME280;20501;45.956;13.632;2023-03-03T13:23:38;100621.28;;;10.44;55.44
34237;BME280;20501;45.956;13.632;2023-03-03T13:26:14;100623.31;;;10.52;56.23
34237;BME280;20501;45.956;13.632;2023-03-03T13:31:22;100618.97;;;10.30;55.66
34237;BME280;20501;45.956;13.632;2023-03-03T13:33:54;100625.59;;;10.57;55.13
34237;BME280;20501;45.956;13.632;2023-03-03T13:36:25;100621.38;;;10.83;54.43
34237;BME280;20501;45.956;13.632;2023-03-03T13:38:55;100626.91;;;11.31;54.31
34237;BME280;20501;45.956;13.632;2023-03-03T13:44:02;100608.41;;;10.97;54.59
34237;BME280;20501;45.956;13.632;2023-03-03T13:51:56;100608.59;;;11.82;53.24
34237;BME280;20501;45.956;13.632;2023-03-03T13:57:52;100612.78;;;11.47;54.27
34237;BME280;20501;45.956;13.632;2023-03-03T14:05:51;100609.91;;;11.58;53.49
34237;BME280;20501;45.956;13.632;2023-03-03T14:08:40;100603.88;;;10.97;53.97
34237;BME280;20501;45.956;13.632;2023-03-03T14:11:24;100607.56;;;10.96;54.67
34237;BME280;20501;45.956;13.632;2023-03-03T14:19:51;100606.25;;;10.51;55.23
34237;BME280;20501;45.956;13.632;2023-03-03T14:25:10;100603.44;;;10.63;56.02
34237;BME280;20501;45.956;13.632;2023-03-03T14:27:39;100602.97;;;10.48;55.66
34237;BME280;20501;45.956;13.632;2023-03-03T14:33:17;100605.13;;;10.54;55.52
34237;BME280;20501;45.956;13.632;2023-03-03T14:38:44;100597.19;;;10.21;55.94
34237;BME280;20501;45.956;13.632;2023-03-03T14:43:44;100610.00;;;10.29;55.85
34237;BME280;20501;45.956;13.632;2023-03-03T14:46:38;100605.59;;;10.28;55.90
34237;BME280;20501;45.956;13.632;2023-03-03T14:49:17;100609.53;;;10.14;56.29
34237;BME280;20501;45.956;13.632;2023-03-03T14:51:52;100619.09;;;10.28;56.26
34237;BME280;20501;45.956;13.632;2023-03-03T14:57:15;100612.22;;;10.14;56.56
34237;BME280;20501;45.956;13.632;2023-03-03T15:02:30;100610.56;;;10.23;56.56
34237;BME280;20501;45.956;13.632;2023-03-03T15:05:19;100604.38;;;10.11;56.95
34237;BME280;20501;45.956;13.632;2023-03-03T15:07:52;100604.50;;;10.00;56.77
34237;BME280;20501;45.956;13.632;2023-03-03T15:18:14;100604.78;;;10.37;56.55
34237;BME280;20501;45.956;13.632;2023-03-03T15:20:41;100613.41;;;10.31;56.07
34237;BME280;20501;45.956;13.632;2023-03-03T15:26:08;100602.72;;;10.20;56.00
34237;BME280;20501;45.956;13.632;2023-03-03T15:37:03;100605.94;;;10.04;57.04
34237;BME280;20501;45.956;13.632;2023-03-03T15:42:19;100609.94;;;10.10;56.90
34237;BME280;20501;45.956;13.632;2023-03-03T15:44:58;100603.19;;;9.94;57.32
34237;BME280;20501;45.956;13.632;2023-03-03T15:55:12;100616.25;;;11.00;55.47
34237;BME280;20501;45.956;13.632;2023-03-03T16:02:55;100619.78;;;10.71;56.04
34237;BME280;20501;45.956;13.632;2023-03-03T16:08:03;100621.91;;;10.58;55.66
34237;BME280;20501;45.956;13.632;2023-03-03T16:13:40;100618.97;;;10.30;56.18
34237;BME280;20501;45.956;13.632;2023-03-03T16:16:13;100616.38;;;10.28;56.32
34237;BME280;20501;45.956;13.632;2023-03-03T16:21:53;100624.19;;;10.82;55.55
34237;BME280;20501;45.956;13.632;2023-03-03T16:24:42;100620.22;;;10.86;55.68
34237;BME280;20501;45.956;13.632;2023-03-03T16:27:36;100630.31;;;10.84;54.51
34237;BME280;20501;45.956;13.632;2023-03-03T16:30:25;100620.94;;;10.88;55.23
34237;BME280;20501;45.956;13.632;2023-03-03T16:33:25;100624.50;;;10.89;56.07
34237;BME280;20501;45.956;13.632;2023-03-03T16:38:40;100634.91;;;11.03;55.50
34237;BME280;20501;45.956;13.632;2023-03-03T16:41:43;100641.13;;;11.53;54.44
34237;BME280;20501;45.956;13.632;2023-03-03T16:46:54;100630.69;;;11.68;54.09
34237;BME280;20501;45.956;13.632;2023-03-03T16:49:36;100638.97;;;11.56;54.08
34237;BME280;20501;45.956;13.632;2023-03-03T16:52:11;100644.00;;;11.22;53.63
34237;BME280;20501;45.956;13.632;2023-03-03T16:54:50;100648.69;;;11.20;54.69
34237;BME280;20501;45.956;13.632;2023-03-03T17:00:44;100653.91;;;11.70;53.95
34237;BME280;20501;45.956;13.632;2023-03-03T17:06:41;100661.16;;;11.70;54.07
34237;BME280;20501;45.956;13.632;2023-03-03T17:17:27;100663.97;;;10.60;56.57
34237;BME280;20501;45.956;13.632;2023-03-03T17:23:26;100663.75;;;11.61;54.13
34237;BME280;20501;45.956;13.632;2023-03-03T17:26:24;100666.63;;;11.60;54.33
34237;BME280;20501;45.956;13.632;2023-03-03T17:29:07;100670.84;;;11.72;53.67
34237;BME280;20501;45.956;13.632;2023-03-03T17:43:24;100683.22;;;11.85;53.35
34237;BME280;20501;45.956;13.632;2023-03-03T17:45:26;100684.81;;;11.77;53.51
34237;BME280;20501;45.956;13.632;2023-03-03T18:07:15;100704.19;;;11.04;55.85
34237;BME280;20501;45.956;13.632;2023-03-03T18:09:52;100697.66;;;11.17;53.97
34237;BME280;20501;45.956;13.632;2023-03-03T18:23:42;100710.22;;;10.05;57.59